Terminal Aerodrome Forecast
Issued by NWS

Home | Current Version | Previous Version | Text Only | Print | Product List | Glossary On
Versions: 1 2 3 4 5 6 7 8 9 10 11 12 13 14 15 16 17 18 19 20 21
943
FTUS46 KLOX 241129
TAFBUR
TAF
KBUR 241129Z 2412/2512 35008KT P6SM SKC
     FM242000 17008KT P6SM SKC
     FM250300 VRB03KT P6SM SKC=

USA.gov is the U.S. government's official web portal to all federal, state and local government web resources and services.